Aktualne dane pomiarowe

Uwaga, wersja testowa! Automatyczne pobieranie danych za pomocą narzędzi lub skryptów to umożliwiających jest zabronione.

Dane meteo z obszaru Polski uzyskane na podstawie depesz SYNOP pobieranych co godzinę z NWS. Najedź myszką na symbol przedstawiony w tabeli, aby uzyskać informacje co do jego znaczenia. Prosimy pamiętać, że to testowa wersja strony, która jeszcze nie jest ukończona. Stworzono również jest krótki FAQ dotyczący korzystania z tej podstrony Anomalie temperatury w chwili obecnej odniesione są do okresu referencyjnego 1951-2016. Okres ten będzie później zmieniony na 1981-2010. Kliknij ikonę aby pobrać plik CSV. Kliknij ikonę aby wygenerować mapę synoptyczną dla danego terminu.

Wybierz Datę:    

        

Rzeszów-Jasionka (12580)

Dane terminowe dla wybranej stacji. Kliknij datę, aby otrzymać dane z tego terminu dla wszystkich stacji.

TemperaturaZachmurzenieWiatrCiśnienieOpadyPogoda
 Data t td wb tx tn tg rh  Nt Nl Cl Cm Ch ws wd g1 g2 wx mslp ppp ch 24h 12h t ww ww w1 w2  
2019-08-08 23:00:00 15.7 13.4 14.1--- 8620.0wx-2wx--21014.3 988.6 0.8---------
2019-08-08 22:00:00 16.7 14.0 14.8--- 8420.0wx-1wx--11014.1 988.5 1.0---------
2019-08-08 21:00:00 16.8 14.3 15.1--- 8520.0wx-wx1wx--11013.9 988.3 1.1---------
2019-08-08 20:00:00 18.0 13.1 14.8--- 7330.0wx-wx1wx---1013.3 987.8 0.8---------
2019-08-08 19:00:00 20.4 12.9 15.6--- 6230.0wx-wx3wx--31012.8 987.5 0.6---------
2019-08-08 18:00:00 20.1 13.3 15.7 25.8 18.7- 6530.0wx-wx3wx-1131012.5 987.2 0.2- 0.012------
2019-08-08 17:00:00 23.3 12.6 16.7--- 5130.0wx-wx5wx--51012.0 987.0 0.1---------
2019-08-08 16:00:00 24.8 12.7 17.4--- 4730.0wxwxwxwx5wx---1011.8 986.9 0.1---------
2019-08-08 15:00:00 24.7 13.3 17.6--- 4930.0wxwxwxwx6wx---1011.9 987.0 0.1---------
2019-08-08 14:00:00 24.3 13.8 17.7--- 5230.0wxwxwxwx6wx--61011.8 986.9 0.1---------
2019-08-08 13:00:00 25.0 13.9 18.0--- 5030.0wxwxwxwx7wx-1171011.6 986.8 0.5---------
2019-08-08 12:00:00 24.5 14.9 18.3--- 5530.0wxwxwxwx7wx-1371011.8 986.9 0.8- 0.06------
2019-08-08 11:00:00 23.9 14.6 18.0--- 5630.0wxwxwx7wx-1271011.7 986.8 1.1---------
2019-08-08 10:00:00 22.8 16.6 18.6--- 6830.0wxwxwx6wx111161011.3 986.3 1.4---------
2019-08-08 09:00:00 20.0 17.2 18.0--- 8430.0wxwxwx7wx-1371011.4 986.1 2.2---------
2019-08-08 08:00:00 20.0 17.8 18.4--- 8730.0wxwxwx8wx-1381010.9 985.7 2.6---------
2019-08-08 07:00:00 19.6 18.3 18.6--- 9230.0wxwxwx7wx-1271010.2 984.9 2.5---------
2019-08-08 06:00:00 18.8 18.3 18.4 21.5 18.3 15 9730.0wxwxwxwx7wx-871009.2 983.9 2.6 3.9 3.012wx-w1w2--
2019-08-08 05:00:00 18.3 18.0 18.1--- 9820.0wxwxwx7wx---1008.4 983.1 2.2---wx-w1w2--
2019-08-08 04:00:00 18.4 18.2 18.2--- 9920.0wxwxwx5wx---1007.7 982.4 1.4---wx-w1w2--
2019-08-08 03:00:00 18.7 18.4 18.5--- 9810.0wxwxwx5wx-851006.5 981.3 0.3---wx---
2019-08-08 02:00:00 19.8 17.9 18.4--- 895.0wxwxwx6wx-861006.0 980.9 -0.6---wx---
2019-08-08 01:00:00 20.9 18.5 19.2--- 8630.0wxwxwx2wx--21006.0 981.0 -0.9---------
2019-08-08 00:00:00 20.5 18.4 19.0--- 8830.0wx-wx2wx--21006.1 981.0 -0.9--6wx-w1--
2019-08-07 23:00:00 20.4 18.2 18.8--- 8730.0wx-wx3wx--31006.6 981.5 -0.8---------
2019-08-07 22:00:00 19.9 18.6 18.9--- 9230.0wx-wx3wx--31007.1 981.9 -0.9---------
2019-08-07 21:00:00 20.3 18.8 19.2--- 9130.0wx-wx2wx--21007.0 981.9 -1.0---wx-w1--
2019-08-07 20:00:00 20.4 18.9 19.3--- 9130.0wx-wx1wx---1007.4 982.3 -0.9---wx---
2019-08-07 19:00:00 20.1 19.1 19.4--- 9415.0wxwxwxwx1wx---1008.0 982.8 -1.2---wx-w1--
2019-08-07 18:00:00 20.8 19.3 19.7 30.1 19.7- 9130.0wxwxwxwx1wx-1311008.0 982.9 -1.0- 1.012wx-w1--
2019-08-07 17:00:00 20.9 19.9 20.2--- 9430.0wx-wxwx2wx--21008.3 983.2 -1.4---------
2019-08-07 16:00:00 21.4 20.2 20.5--- 9330.0wxwxwxwxwx3wx--31009.1 984.0 -0.7---wx---
2019-08-07 15:00:00 19.9 19.4 19.5--- 9720.0wxwxwx2wx-1321009.1 983.9 0.3---wx-w1w2--
2019-08-07 14:00:00 20.1 18.2 18.7--- 8910.0wxwxwx2wx---1009.8 984.6 0.7---wx-w1--
2019-08-07 13:00:00 25.7 17.6 20.3--- 6130.0wxwxwx6wx-1261009.4 984.7 -0.2---wx-w1--
2019-08-07 12:00:00 28.7 15.9 20.5--- 4630.0wxwxwxwx5wx101051008.1 983.6 -1.5- 0.06------
2019-08-07 11:00:00 29.2 15.7 20.6--- 4430.0wxwxwxwx5wx101051008.3 983.9 -1.5---------
2019-08-07 10:00:00 28.5 15.8 20.3--- 4630.0wxwxwxwxwx5wx--51009.4 984.9 -0.6---------
2019-08-07 09:00:00 27.3 16.6 20.3--- 5230.0wxwxwxwxwx4wx--41009.7 985.1 -0.2---------
2019-08-07 08:00:00 26.1 16.6 19.9--- 5630.0wx-wxwx5wx--51010.1 985.4 -0.1---------
2019-08-07 07:00:00 24.3 17.1 19.5--- 6430.0wx-wxwx5wx--51010.4 985.5 -0.1---------
2019-08-07 06:00:00 22.4 17.1 18.8 23.1 19.1 15 7230.0wx-wx5wx--51010.3 985.3 -0.2- 0.012------
2019-08-07 05:00:00 20.6 16.6 17.8--- 7830.0wxwxwxwx6wx--61010.7 985.5 0.1---------
2019-08-07 04:00:00 19.1 16.7 17.4--- 8630.0wxwxwxwx4wx---1010.9 985.6 0.1---------
2019-08-07 03:00:00 19.5 16.5 17.4--- 8330.0wxwxwxwx5wx--51010.8 985.5 -0.1---------
2019-08-07 02:00:00 19.8 16.4 17.4--- 8130.0wx-wxwx4wx--41010.7 985.4 -0.5---------
2019-08-07 01:00:00 20.1 16.5 17.6--- 8030.0wx-wxwx4wx--41010.7 985.5 -0.4---------
2019-08-07 00:00:00 20.1 16.5 17.6--- 8030.0wx-wxwx3wx--31010.8 985.6 -0.3- 0.06------
1.3 ms

 

Print Friendly, PDF & Email